Map

Track Data

SID SEASON NUMBER BASIN SUBBASIN NAME ISO_TIME NATURE LAT LON WMO_WIND WMO_PRES WMO_AGENCY TRACK_TYPE DIST2LAND LANDFALL IFLAG USA_AGENCY USA_ATCF_ID USA_LAT USA_LON USA_RECORD USA_STATUS USA_WIND USA_PRES USA_SSHS USA_R34_NE USA_R34_SE USA_R34_SW USA_R34_NW USA_R50_NE USA_R50_SE USA_R50_SW USA_R50_NW USA_R64_NE USA_R64_SE USA_R64_SW USA_R64_NW USA_POCI USA_ROCI USA_RMW USA_EYE TOKYO_LAT TOKYO_LON TOKYO_GRADE TOKYO_WIND TOKYO_PRES TOKYO_R50_DIR TOKYO_R50_LONG TOKYO_R50_SHORT TOKYO_R30_DIR TOKYO_R30_LONG TOKYO_R30_SHORT TOKYO_LAND CMA_LAT CMA_LON CMA_CAT CMA_WIND CMA_PRES HKO_LAT HKO_LON HKO_CAT HKO_WIND HKO_PRES NEWDELHI_LAT NEWDELHI_LON NEWDELHI_GRADE NEWDELHI_WIND NEWDELHI_PRES NEWDELHI_CI NEWDELHI_DP NEWDELHI_POCI REUNION_LAT REUNION_LON REUNION_TYPE REUNION_WIND REUNION_PRES REUNION_TNUM REUNION_CI REUNION_RMW REUNION_R34_NE REUNION_R34_SE REUNION_R34_SW REUNION_R34_NW REUNION_R50_NE REUNION_R50_SE REUNION_R50_SW REUNION_R50_NW REUNION_R64_NE REUNION_R64_SE REUNION_R64_SW REUNION_R64_NW BOM_LAT BOM_LON BOM_TYPE BOM_WIND BOM_PRES BOM_TNUM BOM_CI BOM_RMW BOM_R34_NE BOM_R34_SE BOM_R34_SW BOM_R34_NW BOM_R50_NE BOM_R50_SE BOM_R50_SW BOM_R50_NW BOM_R64_NE BOM_R64_SE BOM_R64_SW BOM_R64_NW BOM_ROCI BOM_POCI BOM_EYE BOM_POS_METHOD BOM_PRES_METHOD NADI_LAT NADI_LON NADI_CAT NADI_WIND NADI_PRES WELLINGTON_LAT WELLINGTON_LON WELLINGTON_WIND WELLINGTON_PRES DS824_LAT DS824_LON DS824_STAGE DS824_WIND DS824_PRES TD9636_LAT TD9636_LON TD9636_STAGE TD9636_WIND TD9636_PRES TD9635_LAT TD9635_LON TD9635_WIND TD9635_PRES TD9635_ROCI NEUMANN_LAT NEUMANN_LON NEUMANN_CLASS NEUMANN_WIND NEUMANN_PRES MLC_LAT MLC_LON MLC_CLASS MLC_WIND MLC_PRES USA_GUST BOM_GUST BOM_GUST_PER REUNION_GUST REUNION_GUST_PER USA_SEAHGT USA_SEARAD_NE USA_SEARAD_SE USA_SEARAD_SW USA_SEARAD_NW STORM_SPEED STORM_DIR
2020285N15087 2020 90 NI BB NOT_NAMED 2020-10-11 00:00:00 NR 15.3000 86.5000 20 999 newdelhi main 421 394 ____O_________ -1 15.3000 86.5000 D 20 999 1.50000 3 6 289
2020285N15087 2020 90 NI BB NOT_NAMED 2020-10-11 03:00:00 NR 15.4000 86.2000 25 998 newdelhi main 394 370 ____O_________ -1 15.4000 86.2000 D 25 998 1.50000 4 7 278
2020285N15087 2020 90 NI BB NOT_NAMED 2020-10-11 06:00:00 NR 15.4000 85.8000 25 998 newdelhi main 370 355 ____O_________ -1 15.4000 85.8000 D 25 998 1.50000 4 6 274
2020285N15087 2020 90 NI BB NOT_NAMED 2020-10-11 09:00:00 NR 15.4397 85.5455 main 347 332 ____P_________ -1 15.4397 85.5455 D 25 998 4 4 285
2020285N15087 2020 90 NI BB NOT_NAMED 2020-10-11 12:00:00 NR 15.5000 85.4000 25 998 newdelhi main 332 324 ____O_________ -1 15.5000 85.4000 D 25 998 1.50000 4 3 294
2020285N15087 2020 90 NI BB NOT_NAMED 2020-10-11 15:00:00 NR 15.5500 85.2850 main 324 309 ____P_________ -1 15.5500 85.2850 D 25 998 4 2 297
2020285N15087 2020 90 NI BB NOT_NAMED 2020-10-11 18:00:00 NR 15.6000 85.2000 25 998 newdelhi main 309 293 ____O_________ -1 15.6000 85.2000 D 25 998 1.50000 4 2 299
2020285N15087 2020 90 NI BB NOT_NAMED 2020-10-11 21:00:00 NR 15.6602 85.0796 main 293 286 ____P_________ -1 15.6602 85.0796 D 25 998 4 2 297
2020285N15087 2020 90 NI BB NOT_NAMED 2020-10-12 00:00:00 NR 15.7000 85.0000 25 998 newdelhi main 286 286 ____O_________ -1 15.7000 85.0000 D 25 998 1.50000 4 1 297
2020285N15087 2020 90 NI BB NOT_NAMED 2020-10-12 03:00:00 NR 15.7000 85.0000 30 997 newdelhi main 286 255 ____O_________ -1 15.7000 85.0000 DD 30 997 2.00000 5 3 316
2020285N15087 2020 90 NI BB NOT_NAMED 2020-10-12 06:00:00 NR 15.9000 84.8000 30 997 newdelhi main 255 247 ____O_________ -1 15.9000 84.8000 DD 30 997 2.00000 5 4 322
2020285N15087 2020 90 NI BB NOT_NAMED 2020-10-12 09:00:00 NR 16.0065 84.7475 main 239 224 ____P_________ -1 16.0065 84.7475 DD 30 997 5 3 316
2020285N15087 2020 90 NI BB NOT_NAMED 2020-10-12 12:00:00 NR 16.1000 84.6000 30 997 newdelhi main 224 174 ____O_________ -1 16.1000 84.6000 DD 30 997 2.00000 5 7 293
2020285N15087 2020 90 NI BB NOT_NAMED 2020-10-12 15:00:00 NR 16.2855 84.0527 main 174 111 ____P_________ -1 16.2855 84.0527 DD 30 997 5 12 289
2020285N15087 2020 90 NI BB NOT_NAMED 2020-10-12 18:00:00 NR 16.5000 83.4000 30 997 newdelhi main 111 54 ____O_________ -1 16.5000 83.4000 DD 30 997 2.00000 5 12 292
2020285N15087 2020 90 NI BB NOT_NAMED 2020-10-12 21:00:00 NR 16.7203 82.9193 main 54 10 ____P_________ -1 16.7203 82.9193 DD 30 997 5 10 295
2020285N15087 2020 90 NI BB NOT_NAMED 2020-10-13 00:00:00 NR 16.9000 82.5000 30 997 newdelhi main 10 0 ____O_________ -1 16.9000 82.5000 DD 30 997 0.00000 5 8 290
2020285N15087 2020 90 NI BB NOT_NAMED 2020-10-13 03:00:00 NR 17.0000 82.1000 30 996 newdelhi main 0 0 ____O_________ -1 17.0000 82.1000 DD 30 996 0.00000 6 10 293
2020285N15087 2020 90 NI BB NOT_NAMED 2020-10-13 06:00:00 NR 17.3000 81.5000 25 998 newdelhi main 0 0 ____O_________ -1 17.3000 81.5000 D 25 998 0.00000 4 12 293
2020285N15087 2020 90 NI BB NOT_NAMED 2020-10-13 09:00:00 NR 17.4475 80.9793 main 0 0 ____P_________ -1 17.4475 80.9793 D 25 998 4 10 282
2020285N15087 2020 90 NI BB NOT_NAMED 2020-10-13 12:00:00 NR 17.5000 80.5000 25 998 newdelhi main 0 0 ____O_________ -1 17.5000 80.5000 D 25 998 0.00000 4 9 277
2020285N15087 2020 90 NI BB NOT_NAMED 2020-10-13 15:00:00 NR 17.5571 80.0299 main 0 0 ____P_________ -1 17.5571 80.0299 D 25 998 4 10 276
2020285N15087 2020 90 NI BB NOT_NAMED 2020-10-13 18:00:00 NR 17.6000 79.5000 25 998 newdelhi main 0 0 ____O_________ -1 17.6000 79.5000 D 25 998 0.00000 4 12 275
2020285N15087 2020 90 NI BB NOT_NAMED 2020-10-13 21:00:00 NR 17.6604 78.8069 main 0 0 ____P_________ -1 17.6604 78.8069 D 22 999 3 13 274
2020285N15087 2020 90 NI BB NOT_NAMED 2020-10-14 00:00:00 NR 17.7000 78.1000 20 1000 newdelhi main 0 0 ____O_________ -1 17.7000 78.1000 D 20 1000 0.00000 3 12 272
2020285N15087 2020 90 NI AS NOT_NAMED 2020-10-14 03:00:00 NR 17.7000 77.5000 20 1000 newdelhi main 0 0 ____O_________ -1 17.7000 77.5000 D 20 1000 0.00000 3 10 270
2020285N15087 2020 90 NI AS NOT_NAMED 2020-10-14 06:00:00 NR 17.7000 77.0000 20 1000 newdelhi main 0 ____O_________ -1 17.7000 77.0000 D 20 1000 0.00000 3 10 270

About IBTrACS Database

This database is a web-friendly format of International Best Track Archive for Climate Stewardship (IBTrACS), a global best track data archive curated by NOAA dating back to 1842.

Updated: 2022-01-26